Meyersville, TX (77974)

7:31 PM CST on December 18, 2014 (GMT -0600)
The Cooking Depot | Change Station
CLOSE
Current Station
Personal Weather Station
Location: Cuero, TX
Elevation: 188 ft
Nearby Weather Stations

Elev 188 ft 29.09 °N, 97.29 °W | Updated 1 minute ago

Overcast
Overcast
62.7 °F
Feels Like 62.7 °F
N
4.0
Wind Variable Wind from ENE
Gusts 4.0 mph

Today
High -- | Low -- °F
--% Chance of Precip.
Yesterday
High -- | Low -- °F
Precip. -- in
7:16 AM 5:34 PM
Waning Crescent, 11% visible
Pressure 30.03 in
Visibility 4.0 miles
Clouds Mostly Cloudy 1200 ft
Mostly Cloudy 1900 ft
Overcast 2900 ft
Dew Point 60 °F
Humidity 90%
Rainfall 0.00 in
Snow Depth Not available.
UV 0 out of 12
Pollen 6.60 out of 12
Air Quality Not available.
Flu Activity Not available.
SPECI KVCT 190119Z 03005KT 4SM -RA BR BKN012 BKN019 OVC029 18/17 A3003 RMK AO2 RAB0056 P0002 T01780167

More Conditions Fewer Conditions

Pressure 30.03 in
Visibility 4.0 miles
Clouds Mostly Cloudy 1200 ft
Mostly Cloudy 1900 ft
Overcast 2900 ft
Dew Point 60 °F
Humidity 90%
Rainfall 0.00 in
Snow Depth Not available.
UV 0 out of 12
Pollen 6.60 out of 12
Air Quality Not available.
Flu Activity Not available.
SPECI KVCT 190119Z 03005KT 4SM -RA BR BKN012 BKN019 OVC029 18/17 A3003 RMK AO2 RAB0056 P0002 T01780167

More Conditions Fewer Conditions

Nowcast | as of 6:52 PM CST on December 18, 2014

Through 9 PM...areas of light rain and rain showers will continue to develop and move north across the eastern half of south central Texas. Rainfall will remain light with amounts ranging from a few hundredths to a quarter of an inch. Rainfall coverage will increase during the late evening and become more widespread overnight with isolated thunderstorms.

×

10-Day Weather Forecast

Almanac

Astronomy

Dec. 18, 2014 Rise Set
Actual Time
Civil Twilight
Nautical Twilight
Astronomical Twilight
Moon
Length of Visible Light
Length of Day
Tomorrow will be .
, % of the Moon is Illuminated

Today's Extremes

State Highs State Lows

Community

WunderPhotos

Upload Photos

1,779,032 photos uploaded!

WunderBlogs® & News

Nearby

Air Quality

  Air Quality AQ Index Pollutant
Not available.

Snow Depth

Station Depth Elevation

Earthquake Activity

City Distance Mag. Time & Date
Minimum magnitude displayed is 2.5.

Coastal Water Temperatures

Place Temperature

Nearby Weather Stations